Time;durP1;ratioP1;P1;durP2;ratioP2;P2;SDS_P1;SDS_P2;PMS_P1;PMS_P2;Temp;Humidity;BMP_temperature;BMP_pressure;BME280_temperature;BME280_humidity;BME280_pressure;Samples;Min_cycle;Max_cycle;Signal;HPM_P1;HPM_P2
2022/04/26 03:37:56;;;;;;;2.98;1.72;;;;;;;;;;1795106;79;22462;-86
2022/04/26 03:40:22;;;;;;;3.27;1.70;;;;;;;;;;1751631;80;21020;-86
2022/04/26 03:42:50;;;;;;;3.45;1.80;;;;;;;;;;1756540;80;21107;-85
2022/04/26 03:45:16;;;;;;;3.08;1.80;;;;;;;;;;1711116;82;21044;-85
2022/04/26 03:47:42;;;;;;;3.08;1.80;;;;;;;;;;1685292;82;21070;-85
2022/04/26 03:50:09;;;;;;;3.00;1.80;;;;;;;;;;1701980;83;22526;-85
2022/04/26 03:52:35;;;;;;;5.50;2.12;;;;;;;;;;1686807;82;21079;-80
2022/04/26 03:55:02;;;;;;;12.07;4.53;;;;;;;;;;1761021;81;21071;-79
2022/04/26 03:57:31;;;;;;;12.15;4.85;;;;;;;;;;1746008;81;21143;-82
2022/04/26 03:59:57;;;;;;;8.43;3.77;;;;;;;;;;1737988;80;21100;-81
2022/04/26 04:02:25;;;;;;;11.68;4.30;;;;;;;;;;1746690;81;21136;-82
2022/04/26 04:04:51;;;;;;;10.08;4.65;;;;;;;;;;1735476;81;21090;-82
2022/04/26 04:07:18;;;;;;;10.23;4.17;;;;;;;;;;1735752;81;21100;-82
2022/04/26 04:09:46;;;;;;;7.45;3.65;;;;;;;;;;1726176;81;21183;-81
2022/04/26 04:12:14;;;;;;;8.98;3.42;;;;;;;;;;1707464;81;21036;-81
2022/04/26 04:14:42;;;;;;;3.33;2.40;;;;;;;;;;1722535;82;21211;-81
2022/04/26 04:17:09;;;;;;;4.12;2.42;;;;;;;;;;1752978;81;21052;-82
2022/04/26 04:19:36;;;;;;;5.92;3.27;;;;;;;;;;1716688;82;21123;-81
2022/04/26 04:22:05;;;;;;;3.45;2.20;;;;;;;;;;1720023;81;21048;-81
2022/04/26 04:24:32;;;;;;;4.50;2.42;;;;;;;;;;1746657;80;21021;-82
2022/04/26 04:26:59;;;;;;;4.65;3.12;;;;;;;;;;1743880;80;21044;-82
2022/04/26 04:29:26;;;;;;;6.28;3.35;;;;;;;;;;1729656;80;21551;-82
2022/04/26 04:31:53;;;;;;;8.55;3.90;;;;;;;;;;1753165;81;21048;-82
2022/04/26 04:34:19;;;;;;;9.60;4.97;;;;;;;;;;1731399;81;21044;-84
2022/04/26 04:36:46;;;;;;;10.35;4.00;;;;;;;;;;1745518;81;21579;-86
2022/04/26 04:39:19;;;;;;;7.83;3.60;;;;;;;;;;1725058;81;21050;-88
2022/04/26 04:41:40;;;;;;;4.92;2.80;;;;;;;;;;1727536;81;21267;-86
2022/04/26 04:44:07;;;;;;;6.00;3.55;;;;;;;;;;1734217;81;21519;-86
2022/04/26 04:46:34;;;;;;;8.38;4.10;;;;;;;;;;1747016;81;21045;-82
2022/04/26 04:49:01;;;;;;;6.75;3.75;;;;;;;;;;1700894;84;21059;-86
2022/04/26 04:51:27;;;;;;;10.98;4.97;;;;;;;;;;1700779;84;21091;-84
2022/04/26 04:53:53;;;;;;;12.20;4.70;;;;;;;;;;1702543;84;21035;-85
2022/04/26 04:56:23;;;;;;;8.85;3.20;;;;;;;;;;1703049;83;21084;-86
2022/04/26 04:58:49;;;;;;;7.85;3.08;;;;;;;;;;1717976;83;21076;-87
2022/04/26 05:01:15;;;;;;;6.33;2.85;;;;;;;;;;1719655;83;21127;-86
2022/04/26 05:03:42;;;;;;;3.85;2.25;;;;;;;;;;1709892;83;21132;-87
2022/04/26 05:06:11;;;;;;;4.08;2.47;;;;;;;;;;1670170;84;21588;-87
2022/04/26 05:08:37;;;;;;;4.28;2.80;;;;;;;;;;1675189;84;21111;-88
2022/04/26 05:11:03;;;;;;;5.12;2.42;;;;;;;;;;1706457;83;21102;-86
2022/04/26 05:13:30;;;;;;;4.00;2.22;;;;;;;;;;1678010;84;21066;-87
2022/04/26 05:15:56;;;;;;;2.77;2.37;;;;;;;;;;1688965;84;21057;-85
2022/04/26 05:18:22;;;;;;;8.50;2.65;;;;;;;;;;1672021;84;21092;-84
2022/04/26 05:20:50;;;;;;;4.37;2.22;;;;;;;;;;1707879;83;21040;-87
2022/04/26 05:26:00;;;;;;;4.58;2.02;;;;;;;;;;1668204;84;21057;-82
2022/04/26 05:28:27;;;;;;;3.72;2.20;;;;;;;;;;1695745;83;21140;-81
2022/04/26 05:30:54;;;;;;;3.98;2.25;;;;;;;;;;1689530;83;21070;-81
2022/04/26 05:33:21;;;;;;;5.08;2.30;;;;;;;;;;1668889;84;21062;-82
2022/04/26 05:35:48;;;;;;;4.17;2.10;;;;;;;;;;1701976;83;21039;-86
2022/04/26 05:38:15;;;;;;;4.67;2.08;;;;;;;;;;1713489;83;21575;-85
2022/04/26 05:40:41;;;;;;;4.10;2.15;;;;;;;;;;1674273;83;21243;-87
2022/04/26 05:43:08;;;;;;;3.30;2.20;;;;;;;;;;1697196;83;21012;-86
2022/04/26 05:45:35;;;;;;;6.75;2.47;;;;;;;;;;1723256;82;21079;-86
2022/04/26 05:48:01;;;;;;;4.55;2.20;;;;;;;;;;1735057;82;21118;-86
2022/04/26 05:50:28;;;;;;;3.77;2.30;;;;;;;;;;1717711;82;21047;-88
2022/04/26 05:52:54;;;;;;;6.05;2.75;;;;;;;;;;1724901;82;21081;-87
2022/04/26 05:55:20;;;;;;;3.35;2.08;;;;;;;;;;1702884;83;21162;-84
2022/04/26 05:57:46;;;;;;;4.40;2.40;;;;;;;;;;1710860;83;21580;-84
2022/04/26 06:00:12;;;;;;;4.15;2.25;;;;;;;;;;1720762;82;21574;-84
2022/04/26 06:02:39;;;;;;;3.37;2.20;;;;;;;;;;1703110;82;21091;-84
2022/04/26 06:05:06;;;;;;;2.92;2.00;;;;;;;;;;1684108;84;21064;-85
2022/04/26 06:07:34;;;;;;;3.20;1.92;;;;;;;;;;1684476;83;21085;-84
2022/04/26 06:10:01;;;;;;;3.12;1.82;;;;;;;;;;1720549;82;21100;-85
2022/04/26 06:12:31;;;;;;;2.77;1.75;;;;;;;;;;1667059;84;21094;-83
2022/04/26 06:14:59;;;;;;;3.60;1.80;;;;;;;;;;1679378;83;22136;-85
2022/04/26 06:17:27;;;;;;;2.70;1.80;;;;;;;;;;1702476;83;21077;-84
2022/04/26 06:19:53;;;;;;;2.70;1.80;;;;;;;;;;1657879;84;21104;-86
2022/04/26 06:22:20;;;;;;;3.22;1.90;;;;;;;;;;1654087;84;21133;-85
2022/04/26 06:24:50;;;;;;;3.10;1.80;;;;;;;;;;1667787;84;21065;-83
2022/04/26 06:27:18;;;;;;;3.80;2.17;;;;;;;;;;1687842;83;21562;-83
2022/04/26 06:29:44;;;;;;;3.40;2.15;;;;;;;;;;1681931;84;21075;-83
2022/04/26 06:32:11;;;;;;;2.75;2.10;;;;;;;;;;1657248;84;21105;-83
2022/04/26 06:34:38;;;;;;;4.12;1.95;;;;;;;;;;1673752;84;21127;-85
2022/04/26 06:37:04;;;;;;;3.05;1.70;;;;;;;;;;1691041;84;21218;-85
2022/04/26 06:39:30;;;;;;;3.80;1.90;;;;;;;;;;1714436;82;21049;-86
2022/04/26 06:41:56;;;;;;;2.22;1.60;;;;;;;;;;1724958;82;21497;-86
2022/04/26 06:44:25;;;;;;;3.80;1.80;;;;;;;;;;1696818;83;21092;-87
2022/04/26 06:46:52;;;;;;;3.05;1.70;;;;;;;;;;1705821;83;21567;-86
2022/04/26 06:49:17;;;;;;;2.58;1.50;;;;;;;;;;1666038;84;21047;-85
2022/04/26 06:51:46;;;;;;;2.40;1.80;;;;;;;;;;1693391;83;21111;-81
2022/04/26 06:54:12;;;;;;;3.80;1.90;;;;;;;;;;1707699;83;21591;-81
2022/04/26 06:56:40;;;;;;;2.67;1.75;;;;;;;;;;1680006;84;21535;-81
2022/04/26 06:59:07;;;;;;;2.42;1.50;;;;;;;;;;1667183;84;21076;-81
2022/04/26 07:01:33;;;;;;;1.55;1.30;;;;;;;;;;1683331;84;21067;-80
2022/04/26 07:04:01;;;;;;;2.65;1.60;;;;;;;;;;1685344;84;21164;-79
2022/04/26 07:06:28;;;;;;;5.65;2.25;;;;;;;;;;1684588;83;21588;-80
2022/04/26 07:08:56;;;;;;;3.02;1.90;;;;;;;;;;1686081;84;21127;-80
2022/04/26 07:11:22;;;;;;;2.83;2.12;;;;;;;;;;1694016;83;21144;-80
2022/04/26 07:13:52;;;;;;;3.10;1.82;;;;;;;;;;1712368;83;21544;-81
2022/04/26 07:16:19;;;;;;;2.10;1.50;;;;;;;;;;1705072;83;21131;-81
2022/04/26 07:18:46;;;;;;;5.20;1.80;;;;;;;;;;1692124;84;21050;-80
2022/04/26 07:21:13;;;;;;;3.02;1.55;;;;;;;;;;1697018;83;21102;-81
2022/04/26 07:23:41;;;;;;;3.10;1.57;;;;;;;;;;1697179;83;21054;-81
2022/04/26 07:26:07;;;;;;;4.28;1.87;;;;;;;;;;1707123;83;21110;-81
2022/04/26 07:28:33;;;;;;;2.15;1.70;;;;;;;;;;1704161;84;21060;-86
2022/04/26 07:31:01;;;;;;;2.52;1.72;;;;;;;;;;1736292;82;21088;-83
2022/04/26 07:36:13;;;;;;;3.98;1.80;;;;;;;;;;1735905;82;21503;-83
2022/04/26 07:38:39;;;;;;;4.22;1.60;;;;;;;;;;1732082;82;21107;-83
2022/04/26 07:41:07;;;;;;;2.75;1.90;;;;;;;;;;1705544;83;21044;-83
2022/04/26 07:43:34;;;;;;;2.62;1.70;;;;;;;;;;1701258;84;21045;-84
2022/04/26 07:46:00;;;;;;;3.08;1.85;;;;;;;;;;1691014;83;21035;-84
2022/04/26 07:48:27;;;;;;;2.27;1.80;;;;;;;;;;1692166;83;21085;-83
2022/04/26 07:50:53;;;;;;;2.22;1.80;;;;;;;;;;1678749;84;21055;-84
2022/04/26 07:53:20;;;;;;;4.60;2.02;;;;;;;;;;1682874;84;21181;-85
2022/04/26 07:55:47;;;;;;;3.20;1.80;;;;;;;;;;1666325;84;21095;-85
2022/04/26 07:58:13;;;;;;;2.45;1.55;;;;;;;;;;1685124;84;21125;-85
2022/04/26 08:00:39;;;;;;;3.92;1.90;;;;;;;;;;1682843;84;21106;-83
2022/04/26 08:03:06;;;;;;;3.00;1.80;;;;;;;;;;1660822;84;21651;-84
2022/04/26 08:05:32;;;;;;;2.65;1.90;;;;;;;;;;1700648;82;21086;-83
2022/04/26 08:07:59;;;;;;;3.55;1.70;;;;;;;;;;1722520;82;21091;-83
2022/04/26 08:10:26;;;;;;;3.87;1.80;;;;;;;;;;1697439;84;21097;-86
2022/04/26 08:12:52;;;;;;;2.60;1.35;;;;;;;;;;1684220;84;21068;-85
2022/04/26 08:15:20;;;;;;;3.52;1.92;;;;;;;;;;1682694;83;21690;-83
2022/04/26 08:17:48;;;;;;;2.87;1.60;;;;;;;;;;1706591;83;21105;-83
2022/04/26 08:20:14;;;;;;;3.05;2.02;;;;;;;;;;1698772;83;21121;-82
2022/04/26 08:22:40;;;;;;;4.30;1.65;;;;;;;;;;1687538;84;20995;-83
2022/04/26 08:27:54;;;;;;;3.75;1.80;;;;;;;;;;1705258;83;21075;-83
2022/04/26 08:30:20;;;;;;;3.10;2.25;;;;;;;;;;1708041;82;21097;-84
2022/04/26 08:32:48;;;;;;;4.08;1.90;;;;;;;;;;1712050;83;21077;-83
2022/04/26 08:35:15;;;;;;;3.22;1.90;;;;;;;;;;1717992;83;21529;-81
2022/04/26 08:37:43;;;;;;;4.87;2.00;;;;;;;;;;1673078;84;21071;-83
2022/04/26 08:40:11;;;;;;;3.58;1.90;;;;;;;;;;1673932;84;21103;-84
2022/04/26 08:42:41;;;;;;;3.08;1.90;;;;;;;;;;1692096;84;21052;-83
2022/04/26 08:45:09;;;;;;;3.47;1.85;;;;;;;;;;1657415;84;21208;-83
2022/04/26 08:53:07;;;;;;;3.45;1.80;;;;;;;;;;1715923;82;21083;-84
2022/04/26 08:55:36;;;;;;;6.50;1.80;;;;;;;;;;1692067;83;22536;-84
2022/04/26 08:58:03;;;;;;;3.45;1.70;;;;;;;;;;1689257;84;21639;-84
2022/04/26 09:00:29;;;;;;;2.25;1.80;;;;;;;;;;1678480;84;21056;-84
2022/04/26 09:03:01;;;;;;;2.90;1.85;;;;;;;;;;1701336;83;21064;-84
2022/04/26 09:05:28;;;;;;;2.20;1.57;;;;;;;;;;1701181;83;21488;-86
2022/04/26 09:07:54;;;;;;;3.20;1.72;;;;;;;;;;1702072;83;21064;-86
2022/04/26 09:10:21;;;;;;;3.15;2.00;;;;;;;;;;1702157;83;21123;-85
2022/04/26 09:13:07;;;;;;;3.05;1.70;;;;;;;;;;1702395;83;21129;-85
2022/04/26 09:15:41;;;;;;;2.45;1.47;;;;;;;;;;1702757;83;21138;-84
2022/04/26 09:18:20;;;;;;;3.85;2.02;;;;;;;;;;1701550;83;21249;-85
2022/04/26 09:20:42;;;;;;;3.05;1.55;;;;;;;;;;1684529;83;21078;-85
2022/04/26 09:23:16;;;;;;;3.47;1.80;;;;;;;;;;1666369;85;21051;-85
2022/04/26 09:25:42;;;;;;;2.12;1.47;;;;;;;;;;1685259;83;21080;-82
2022/04/26 09:28:12;;;;;;;2.52;1.40;;;;;;;;;;1682965;82;21131;-82
2022/04/26 09:30:38;;;;;;;3.80;1.70;;;;;;;;;;1686025;83;21163;-82
2022/04/26 09:33:05;;;;;;;3.02;1.75;;;;;;;;;;1719036;83;21065;-81
2022/04/26 09:35:32;;;;;;;2.67;1.60;;;;;;;;;;1710945;83;21637;-82
2022/04/26 09:38:00;;;;;;;2.55;1.40;;;;;;;;;;1715167;83;21032;-84
2022/04/26 09:40:31;;;;;;;2.22;1.60;;;;;;;;;;1687232;83;21052;-84
2022/04/26 09:42:57;;;;;;;2.83;1.70;;;;;;;;;;1702281;82;21696;-83
2022/04/26 09:45:25;;;;;;;2.42;1.60;;;;;;;;;;1707342;83;21001;-84
2022/04/26 09:47:51;;;;;;;2.47;1.50;;;;;;;;;;1717857;82;21092;-84
2022/04/26 09:50:19;;;;;;;2.33;1.50;;;;;;;;;;1685007;83;21632;-83
2022/04/26 09:52:46;;;;;;;2.60;1.60;;;;;;;;;;1718668;82;21071;-83
2022/04/26 09:55:15;;;;;;;1.50;1.32;;;;;;;;;;1731366;82;21091;-82
2022/04/26 09:57:43;;;;;;;2.08;1.40;;;;;;;;;;1727908;82;21049;-82
2022/04/26 10:00:10;;;;;;;4.40;1.60;;;;;;;;;;1693516;83;21066;-83
2022/04/26 10:02:37;;;;;;;1.72;1.40;;;;;;;;;;1733131;83;21054;-85
2022/04/26 10:05:05;;;;;;;2.47;1.50;;;;;;;;;;1690119;84;21067;-83
2022/04/26 10:07:36;;;;;;;3.02;1.45;;;;;;;;;;1668200;84;21022;-82
2022/04/26 10:10:03;;;;;;;2.85;1.50;;;;;;;;;;1661390;84;21100;-83
2022/04/26 10:12:31;;;;;;;2.95;1.60;;;;;;;;;;1671285;84;21064;-83
2022/04/26 10:14:58;;;;;;;2.27;1.60;;;;;;;;;;1672760;84;21093;-82
2022/04/26 10:17:26;;;;;;;2.80;1.50;;;;;;;;;;1674758;83;21141;-82
2022/04/26 10:19:52;;;;;;;3.10;1.50;;;;;;;;;;1706366;83;21045;-82
2022/04/26 10:22:21;;;;;;;3.87;1.75;;;;;;;;;;1719420;83;21080;-82
2022/04/26 10:25:04;;;;;;;2.58;1.40;;;;;;;;;;1700983;83;21072;-83
2022/04/26 10:27:32;;;;;;;2.75;1.50;;;;;;;;;;1641290;86;21262;-82
2022/04/26 10:29:59;;;;;;;1.87;1.30;;;;;;;;;;1673548;83;21090;-82
2022/04/26 10:32:34;;;;;;;3.00;1.80;;;;;;;;;;1701055;83;21041;-83
2022/04/26 10:35:19;;;;;;;3.42;1.42;;;;;;;;;;1698757;83;21070;-79
2022/04/26 10:37:47;;;;;;;2.45;1.40;;;;;;;;;;1709001;83;22465;-82
2022/04/26 10:40:15;;;;;;;3.08;1.40;;;;;;;;;;1689090;83;21072;-80
2022/04/26 10:42:42;;;;;;;1.77;1.50;;;;;;;;;;1697717;83;21056;-82
2022/04/26 10:45:10;;;;;;;1.35;1.25;;;;;;;;;;1714800;83;21081;-82
2022/04/26 10:47:36;;;;;;;1.60;1.30;;;;;;;;;;1721500;83;21124;-83
2022/04/26 10:50:03;;;;;;;2.75;1.47;;;;;;;;;;1722755;83;21114;-82
2022/04/26 10:52:33;;;;;;;1.60;1.50;;;;;;;;;;1698955;83;21137;-82
2022/04/26 10:55:07;;;;;;;4.45;1.65;;;;;;;;;;1709008;83;21073;-82
2022/04/26 10:57:37;;;;;;;2.35;1.47;;;;;;;;;;1704007;82;21079;-81
2022/04/26 11:00:07;;;;;;;2.15;1.80;;;;;;;;;;1722084;83;21045;-82
2022/04/26 11:02:36;;;;;;;1.82;1.50;;;;;;;;;;1720746;83;21017;-83
2022/04/26 11:05:04;;;;;;;2.83;1.50;;;;;;;;;;1706825;83;21061;-83
2022/04/26 11:07:32;;;;;;;2.67;1.57;;;;;;;;;;1709977;83;21733;-83
2022/04/26 11:09:59;;;;;;;1.87;1.35;;;;;;;;;;1721009;83;21079;-82
2022/04/26 11:12:26;;;;;;;2.22;1.52;;;;;;;;;;1704176;83;21012;-82
2022/04/26 11:14:54;;;;;;;2.72;1.67;;;;;;;;;;1700807;84;21623;-81
2022/04/26 11:17:22;;;;;;;2.65;1.55;;;;;;;;;;1704334;83;21112;-80
2022/04/26 11:19:53;;;;;;;2.27;1.60;;;;;;;;;;1704389;83;21466;-81
2022/04/26 11:22:20;;;;;;;3.33;1.75;;;;;;;;;;1693264;85;21990;-82
2022/04/26 11:30:24;;;;;;;3.90;1.90;;;;;;;;;;1675436;84;21071;-82
2022/04/26 11:32:50;;;;;;;3.95;2.05;;;;;;;;;;1715511;83;21628;-82
2022/04/26 11:35:21;;;;;;;3.62;2.05;;;;;;;;;;1726522;83;21130;-82
2022/04/26 11:37:50;;;;;;;3.15;1.80;;;;;;;;;;1679254;84;21526;-81
2022/04/26 11:40:29;;;;;;;3.83;2.00;;;;;;;;;;1714948;82;21090;-82
2022/04/26 11:43:00;;;;;;;2.60;2.10;;;;;;;;;;1703630;82;21063;-82
2022/04/26 11:45:28;;;;;;;3.67;2.10;;;;;;;;;;1677441;82;21100;-82
2022/04/26 11:47:51;;;;;;;4.75;2.55;;;;;;;;;;1693659;84;21098;-83
2022/04/26 11:50:21;;;;;;;2.92;1.80;;;;;;;;;;1697909;84;21520;-83
2022/04/26 11:52:48;;;;;;;3.05;2.10;;;;;;;;;;1698294;83;21623;-83
2022/04/26 11:55:32;;;;;;;2.50;1.60;;;;;;;;;;1693567;83;21056;-82
2022/04/26 11:58:12;;;;;;;2.37;1.62;;;;;;;;;;1694768;83;21524;-82
2022/04/26 12:00:59;;;;;;;19.12;6.72;;;;;;;;;;1707975;83;21512;-83
2022/04/26 12:03:26;;;;;;;6.25;2.55;;;;;;;;;;1714723;83;21169;-82
2022/04/26 12:05:59;;;;;;;4.53;1.77;;;;;;;;;;1716515;83;21079;-82
2022/04/26 12:08:25;;;;;;;2.65;1.62;;;;;;;;;;1701996;84;21055;-82
2022/04/26 12:10:53;;;;;;;2.27;1.60;;;;;;;;;;1675217;83;21724;-83
2022/04/26 12:13:30;;;;;;;1.70;1.52;;;;;;;;;;1691127;83;21066;-83
2022/04/26 12:15:57;;;;;;;2.52;1.70;;;;;;;;;;1700060;83;21531;-83
2022/04/26 12:18:24;;;;;;;2.25;1.62;;;;;;;;;;1713270;83;21061;-82
2022/04/26 12:20:56;;;;;;;2.25;1.80;;;;;;;;;;1727727;82;21097;-80
2022/04/26 12:23:23;;;;;;;3.02;1.80;;;;;;;;;;1699905;83;21045;-82
2022/04/26 12:25:55;;;;;;;3.08;1.67;;;;;;;;;;1697630;83;21538;-83
2022/04/26 12:28:22;;;;;;;1.95;1.60;;;;;;;;;;1679857;84;21102;-82
2022/04/26 12:30:50;;;;;;;2.87;1.62;;;;;;;;;;1706905;83;21674;-82
2022/04/26 12:33:31;;;;;;;1.50;1.40;;;;;;;;;;1695390;83;21182;-81
2022/04/26 12:35:59;;;;;;;2.27;1.50;;;;;;;;;;1706921;82;21089;-82
2022/04/26 12:38:25;;;;;;;1.90;1.50;;;;;;;;;;1702429;83;21048;-82
2022/04/26 12:41:01;;;;;;;2.10;1.47;;;;;;;;;;1677006;84;21520;-82
2022/04/26 12:43:28;;;;;;;2.58;1.40;;;;;;;;;;1683827;83;21062;-82
2022/04/26 12:45:58;;;;;;;2.80;1.75;;;;;;;;;;1713963;83;21545;-83
2022/04/26 12:51:17;;;;;;;2.12;1.60;;;;;;;;;;1667347;84;21521;-80
2022/04/26 12:53:45;;;;;;;2.62;1.70;;;;;;;;;;1695245;83;21076;-82
2022/04/26 12:56:11;;;;;;;3.05;1.95;;;;;;;;;;1692108;83;21079;-83
2022/04/26 12:58:38;;;;;;;4.00;2.10;;;;;;;;;;1695889;83;21048;-82
2022/04/26 13:01:06;;;;;;;2.50;1.85;;;;;;;;;;1718440;83;21076;-83
2022/04/26 13:03:33;;;;;;;2.77;2.00;;;;;;;;;;1719654;83;21149;-80
2022/04/26 13:06:07;;;;;;;2.47;1.80;;;;;;;;;;1677142;84;21096;-81
2022/04/26 13:08:36;;;;;;;3.27;2.50;;;;;;;;;;1672776;84;21639;-83
2022/04/26 13:11:02;;;;;;;3.08;2.50;;;;;;;;;;1701694;84;21087;-81
2022/04/26 13:13:29;;;;;;;2.72;2.30;;;;;;;;;;1706994;82;21531;-81
2022/04/26 13:15:57;;;;;;;3.65;2.35;;;;;;;;;;1728842;83;21236;-82
2022/04/26 13:18:23;;;;;;;3.65;2.30;;;;;;;;;;1708075;83;21035;-81
2022/04/26 13:20:49;;;;;;;2.65;2.30;;;;;;;;;;1669505;84;21069;-82
2022/04/26 13:23:16;;;;;;;3.75;2.30;;;;;;;;;;1705738;83;21124;-81
2022/04/26 13:25:42;;;;;;;2.77;2.20;;;;;;;;;;1711415;83;21127;-81
2022/04/26 13:28:09;;;;;;;3.02;2.10;;;;;;;;;;1690986;83;21103;-80
2022/04/26 13:30:36;;;;;;;3.37;2.17;;;;;;;;;;1667039;85;21112;-82
2022/04/26 13:33:03;;;;;;;3.00;2.10;;;;;;;;;;1701010;83;21157;-82
2022/04/26 13:35:29;;;;;;;3.22;1.90;;;;;;;;;;1720172;83;22100;-81
2022/04/26 13:37:58;;;;;;;2.45;1.80;;;;;;;;;;1719896;83;21543;-82
2022/04/26 13:40:23;;;;;;;2.37;1.80;;;;;;;;;;1697473;83;21057;-83
2022/04/26 13:42:51;;;;;;;3.60;2.22;;;;;;;;;;1689568;83;21084;-81
2022/04/26 13:45:18;;;;;;;3.12;2.12;;;;;;;;;;1683884;83;21092;-82
2022/04/26 13:47:45;;;;;;;3.60;2.25;;;;;;;;;;1679021;84;21436;-82
2022/04/26 13:50:13;;;;;;;2.72;2.20;;;;;;;;;;1689891;84;21565;-80
2022/04/26 13:52:42;;;;;;;3.62;2.35;;;;;;;;;;1686060;84;21084;-83
2022/04/26 13:55:08;;;;;;;2.60;2.10;;;;;;;;;;1681445;83;21088;-81
2022/04/26 13:57:38;;;;;;;3.30;2.20;;;;;;;;;;1682142;83;21084;-81
2022/04/26 14:00:05;;;;;;;3.00;2.20;;;;;;;;;;1693234;83;21037;-83
2022/04/26 14:02:35;;;;;;;2.50;2.10;;;;;;;;;;1707888;83;21076;-83
2022/04/26 14:05:01;;;;;;;2.62;1.87;;;;;;;;;;1681768;84;21076;-82
2022/04/26 14:07:28;;;;;;;2.20;2.00;;;;;;;;;;1684187;84;21022;-82
2022/04/26 14:09:56;;;;;;;3.80;2.20;;;;;;;;;;1694377;83;21069;-83
2022/04/26 14:12:23;;;;;;;2.70;1.92;;;;;;;;;;1716398;83;21615;-81
2022/04/26 14:23:06;;;;;;;2.40;1.80;;;;;;;;;;1706178;83;21127;-81
2022/04/26 14:25:35;;;;;;;2.52;1.92;;;;;;;;;;1694735;83;21125;-82
2022/04/26 14:28:01;;;;;;;2.25;1.87;;;;;;;;;;1658483;84;21039;-83
2022/04/26 14:30:27;;;;;;;2.52;2.00;;;;;;;;;;1691500;83;21509;-83
2022/04/26 14:32:55;;;;;;;2.33;1.80;;;;;;;;;;1698980;83;21053;-82
2022/04/26 14:35:23;;;;;;;3.10;2.30;;;;;;;;;;1699067;83;21068;-83
2022/04/26 14:37:53;;;;;;;3.70;2.10;;;;;;;;;;1706992;83;21100;-82
2022/04/26 14:40:18;;;;;;;4.35;2.77;;;;;;;;;;1686999;84;21013;-83
2022/04/26 14:42:46;;;;;;;4.10;3.20;;;;;;;;;;1681601;84;21069;-81
2022/04/26 14:45:12;;;;;;;5.95;3.90;;;;;;;;;;1682322;83;21134;-81
2022/04/26 14:47:38;;;;;;;6.22;4.17;;;;;;;;;;1687265;83;21080;-82
2022/04/26 14:50:05;;;;;;;6.50;4.15;;;;;;;;;;1686186;83;21057;-81
2022/04/26 14:52:32;;;;;;;5.55;4.33;;;;;;;;;;1686046;84;21517;-81
2022/04/26 14:55:01;;;;;;;5.42;3.75;;;;;;;;;;1680110;84;21053;-81
2022/04/26 14:57:28;;;;;;;6.12;4.28;;;;;;;;;;1692732;83;21018;-82
2022/04/26 14:59:56;;;;;;;7.45;4.53;;;;;;;;;;1695278;83;21065;-83
2022/04/26 15:02:24;;;;;;;7.78;5.33;;;;;;;;;;1683281;83;21072;-81
2022/04/26 15:04:51;;;;;;;8.30;5.42;;;;;;;;;;1712284;83;20985;-80
2022/04/26 15:07:19;;;;;;;7.70;5.22;;;;;;;;;;1702809;83;21034;-82
2022/04/26 15:09:52;;;;;;;6.83;4.78;;;;;;;;;;1717019;83;21053;-82
2022/04/26 15:17:48;;;;;;;6.72;4.92;;;;;;;;;;1678949;84;21042;-83
2022/04/26 15:20:13;;;;;;;7.72;5.42;;;;;;;;;;1697463;83;21572;-82
2022/04/26 15:22:41;;;;;;;9.48;5.12;;;;;;;;;;1678410;84;21068;-83
2022/04/26 15:25:09;;;;;;;8.88;5.75;;;;;;;;;;1698007;83;21068;-82
2022/04/26 15:27:39;;;;;;;7.83;5.30;;;;;;;;;;1661922;86;21514;-83
2022/04/26 15:30:08;;;;;;;7.22;4.87;;;;;;;;;;1648230;84;21608;-82
2022/04/26 15:32:35;;;;;;;8.90;5.45;;;;;;;;;;1655805;84;21164;-83
2022/04/26 15:35:05;;;;;;;8.23;5.47;;;;;;;;;;1698705;83;21147;-82
2022/04/26 15:37:32;;;;;;;10.40;6.45;;;;;;;;;;1714077;83;21040;-82
2022/04/26 15:40:00;;;;;;;10.23;7.00;;;;;;;;;;1704477;82;21140;-82
2022/04/26 15:42:26;;;;;;;7.97;5.37;;;;;;;;;;1681664;83;21045;-82
2022/04/26 15:44:52;;;;;;;8.30;5.75;;;;;;;;;;1694697;83;21093;-83
2022/04/26 15:47:19;;;;;;;9.73;5.17;;;;;;;;;;1643395;84;21014;-82
2022/04/26 15:49:47;;;;;;;9.18;5.12;;;;;;;;;;1643435;84;21592;-81
2022/04/26 15:54:36;;;;;;;7.05;4.47;;;;;;;;;;1819849;79;22735;-83
2022/04/26 15:57:04;;;;;;;6.90;4.80;;;;;;;;;;1793085;80;21012;-83
2022/04/26 15:59:30;;;;;;;7.17;4.47;;;;;;;;;;1791887;80;21539;-82
2022/04/26 16:01:57;;;;;;;6.17;4.72;;;;;;;;;;1792909;80;21096;-82
2022/04/26 16:04:24;;;;;;;6.45;4.67;;;;;;;;;;1783458;80;21084;-82
2022/04/26 16:06:50;;;;;;;7.30;4.12;;;;;;;;;;1762245;80;21118;-83
2022/04/26 16:20:31;;;;;;;5.78;4.53;;;;;;;;;;1791683;80;21542;-82
2022/04/26 16:22:58;;;;;;;6.42;4.47;;;;;;;;;;1769595;80;21480;-82
2022/04/26 16:25:24;;;;;;;6.40;3.98;;;;;;;;;;1780394;80;21051;-81
2022/04/26 16:27:51;;;;;;;7.87;4.78;;;;;;;;;;1767440;80;21024;-83
2022/04/26 16:30:19;;;;;;;6.55;4.30;;;;;;;;;;1761554;81;21123;-82
2022/04/26 16:32:46;;;;;;;6.72;4.53;;;;;;;;;;1784441;80;21105;-83
2022/04/26 16:35:12;;;;;;;6.75;4.30;;;;;;;;;;1775158;80;21012;-83
2022/04/26 16:37:39;;;;;;;6.95;4.50;;;;;;;;;;1772043;80;21004;-83
2022/04/26 16:40:06;;;;;;;6.12;3.85;;;;;;;;;;1785090;80;21103;-83
2022/04/26 16:42:33;;;;;;;6.90;4.50;;;;;;;;;;1773231;80;21425;-83
2022/04/26 16:45:00;;;;;;;8.43;4.78;;;;;;;;;;1769053;80;21594;-83
2022/04/26 16:47:26;;;;;;;7.00;4.97;;;;;;;;;;1778431;80;21072;-84
2022/04/26 16:49:54;;;;;;;7.47;4.47;;;;;;;;;;1786540;80;21016;-82
2022/04/26 16:52:22;;;;;;;6.22;4.55;;;;;;;;;;1762105;80;21045;-83
2022/04/26 16:54:49;;;;;;;7.58;4.92;;;;;;;;;;1760080;81;21434;-84
2022/04/26 16:57:16;;;;;;;7.90;5.22;;;;;;;;;;1775690;80;21025;-84
2022/04/26 16:59:43;;;;;;;7.53;4.60;;;;;;;;;;1770353;81;21061;-82
2022/04/26 17:02:09;;;;;;;8.63;5.25;;;;;;;;;;1757654;81;21658;-84
2022/04/26 17:04:35;;;;;;;6.35;4.28;;;;;;;;;;1763679;81;21068;-84
2022/04/26 17:07:01;;;;;;;6.87;4.60;;;;;;;;;;1761295;81;21686;-84
2022/04/26 17:09:30;;;;;;;7.72;4.47;;;;;;;;;;1764272;81;21009;-84
2022/04/26 17:11:58;;;;;;;7.25;4.65;;;;;;;;;;1770160;81;21943;-84
2022/04/26 17:14:24;;;;;;;6.65;4.20;;;;;;;;;;1763976;81;21072;-83
2022/04/26 17:16:50;;;;;;;6.45;5.12;;;;;;;;;;1764662;80;21005;-84
2022/04/26 17:19:17;;;;;;;7.40;4.67;;;;;;;;;;1760892;81;21462;-83
2022/04/26 17:21:46;;;;;;;7.83;5.17;;;;;;;;;;1752778;81;21600;-84
2022/04/26 17:26:59;;;;;;;5.87;4.37;;;;;;;;;;1760971;81;21002;-84
2022/04/26 17:29:26;;;;;;;6.05;4.37;;;;;;;;;;1748675;81;21072;-83
2022/04/26 17:31:53;;;;;;;6.53;3.90;;;;;;;;;;1748479;81;21198;-81
2022/04/26 17:34:20;;;;;;;5.78;3.92;;;;;;;;;;1749134;81;21021;-80
2022/04/26 17:36:46;;;;;;;6.12;4.30;;;;;;;;;;1789465;80;21504;-82
2022/04/26 17:39:14;;;;;;;6.22;4.30;;;;;;;;;;1801156;80;21046;-83
2022/04/26 17:41:40;;;;;;;5.72;3.50;;;;;;;;;;1800882;80;21081;-82
2022/04/26 17:44:07;;;;;;;5.75;4.10;;;;;;;;;;1777265;79;20975;-83
2022/04/26 17:46:34;;;;;;;5.83;4.45;;;;;;;;;;1774357;81;21592;-82
2022/04/26 17:49:01;;;;;;;5.87;3.90;;;;;;;;;;1772925;81;21041;-82
2022/04/26 17:51:27;;;;;;;5.78;4.05;;;;;;;;;;1772698;81;21092;-82
2022/04/26 17:56:42;;;;;;;6.28;4.15;;;;;;;;;;1781129;80;21029;-82
2022/04/26 17:59:08;;;;;;;6.60;4.40;;;;;;;;;;1778249;80;21348;-83
2022/04/26 18:01:35;;;;;;;6.33;3.72;;;;;;;;;;1765167;80;21064;-82
2022/04/26 18:04:02;;;;;;;5.60;4.15;;;;;;;;;;1785117;80;21099;-82
2022/04/26 18:06:29;;;;;;;6.45;3.77;;;;;;;;;;1779409;80;21025;-80
2022/04/26 18:08:57;;;;;;;6.22;4.00;;;;;;;;;;1756768;82;21083;-82
2022/04/26 18:11:23;;;;;;;5.72;4.05;;;;;;;;;;1756809;82;21032;-82
2022/04/26 18:13:52;;;;;;;6.20;3.77;;;;;;;;;;1756554;82;21535;-82
2022/04/26 18:16:20;;;;;;;6.65;4.72;;;;;;;;;;1756872;82;21060;-82
2022/04/26 18:18:48;;;;;;;5.60;3.83;;;;;;;;;;1766282;80;21033;-82
2022/04/26 18:21:16;;;;;;;5.03;3.92;;;;;;;;;;1786595;80;21029;-82
2022/04/26 18:23:45;;;;;;;7.55;4.50;;;;;;;;;;1786267;80;21037;-82
2022/04/26 18:26:17;;;;;;;5.80;4.35;;;;;;;;;;1786382;80;21485;-82
2022/04/26 18:28:44;;;;;;;9.45;5.47;;;;;;;;;;1786736;80;21505;-82
2022/04/26 18:31:12;;;;;;;6.30;4.42;;;;;;;;;;1786585;80;20985;-83
2022/04/26 18:33:41;;;;;;;6.17;4.03;;;;;;;;;;1757823;80;21552;-80
2022/04/26 18:36:08;;;;;;;7.20;4.55;;;;;;;;;;1756700;81;21060;-83
2022/04/26 18:38:39;;;;;;;7.22;4.70;;;;;;;;;;1756833;81;21096;-84
2022/04/26 18:41:08;;;;;;;6.90;5.20;;;;;;;;;;1757128;82;21060;-82
2022/04/26 18:43:35;;;;;;;6.75;4.58;;;;;;;;;;1756779;81;20993;-83
2022/04/26 18:46:03;;;;;;;7.47;4.42;;;;;;;;;;1756746;82;21144;-82
2022/04/26 18:48:30;;;;;;;9.05;5.10;;;;;;;;;;1756498;82;21017;-82
2022/04/26 18:50:57;;;;;;;6.72;4.58;;;;;;;;;;1756815;81;21076;-82
2022/04/26 18:53:23;;;;;;;7.60;4.58;;;;;;;;;;1753077;82;20994;-81
2022/04/26 18:55:50;;;;;;;6.55;4.72;;;;;;;;;;1756524;81;21065;-82
2022/04/26 18:58:18;;;;;;;10.00;5.40;;;;;;;;;;1772612;81;21568;-82
2022/04/26 19:00:46;;;;;;;7.25;4.70;;;;;;;;;;1777922;81;21076;-82
2022/04/26 19:03:12;;;;;;;8.35;5.28;;;;;;;;;;1779498;81;21682;-83
2022/04/26 19:05:39;;;;;;;7.50;4.80;;;;;;;;;;1779162;81;21564;-83
2022/04/26 19:08:07;;;;;;;7.37;5.20;;;;;;;;;;1779134;81;21029;-82
2022/04/26 19:13:20;;;;;;;6.95;5.00;;;;;;;;;;1779123;81;21076;-81
2022/04/26 19:15:47;;;;;;;7.70;4.50;;;;;;;;;;1779203;81;21088;-83
2022/04/26 19:18:16;;;;;;;7.35;4.65;;;;;;;;;;1779131;81;21105;-82
2022/04/26 19:20:43;;;;;;;7.08;4.50;;;;;;;;;;1779915;80;21063;-83